Time;durP1;ratioP1;P1;durP2;ratioP2;P2;SDS_P1;SDS_P2;PMS_P1;PMS_P2;Temp;Humidity;BMP_temperature;BMP_pressure;BME280_temperature;BME280_humidity;BME280_pressure;Samples;Min_cycle;Max_cycle;Signal;HPM_P1;HPM_P2
2023/03/22 00:00:11;;;;;;;;;;;;;;;17.24;59.45;100833.88;2062107;28;19925;-74
2023/03/22 00:01:14;;;;;;;;;;;;;;;17.25;59.47;100840.13;2078121;28;20063;-73
2023/03/22 00:02:17;;;;;;;;;;;;;;;17.25;59.40;100837.41;2067608;28;19981;-73
2023/03/22 00:03:19;;;;;;;;;;;;;;;17.25;59.27;100831.94;2058864;28;19930;-73
2023/03/22 00:04:22;;;;;;;;;;;;;;;17.25;59.30;100837.41;2069926;28;20370;-73
2023/03/22 00:05:24;;;;;;;;;;;;;;;17.24;59.57;100835.81;2058993;28;19932;-73
2023/03/22 00:06:27;;;;;;;;;;;;;;;17.24;59.30;100830.38;2060772;28;20303;-73
2023/03/22 00:07:30;;;;;;;;;;;;;;;17.24;59.55;100831.16;2061928;28;20358;-73
2023/03/22 00:08:33;;;;;;;;;;;;;;;17.24;59.10;100835.81;2073939;28;19921;-73
2023/03/22 00:09:35;;;;;;;;;;;;;;;17.24;59.15;100830.38;2071931;28;20031;-73
2023/03/22 00:10:38;;;;;;;;;;;;;;;17.24;59.26;100833.88;2061053;28;20318;-73
2023/03/22 08:20:24;;;;;;;;;;;;;;;17.11;59.06;100428.91;2059417;28;19926;-68
2023/03/22 08:21:35;;;;;;;;;;;;;;;17.12;58.71;100437.91;2045193;28;19973;-67
2023/03/22 08:22:44;;;;;;;;;;;;;;;17.13;58.69;100428.53;2039256;28;19957;-67
2023/03/22 08:24:15;;;;;;;;;;;;;;;17.15;58.71;100423.47;2049454;28;19926;-67
2023/03/22 08:25:44;;;;;;;;;;;;;;;17.14;58.57;100428.13;2051202;28;20309;-67
2023/03/22 08:26:48;;;;;;;;;;;;;;;17.16;58.39;100433.97;2050818;28;19926;-67
2023/03/22 08:54:21;;;;;;;;;;;;;;;17.60;57.96;100431.50;2225176;23;20131;-65
2023/03/22 08:55:43;;;;;;;;;;;;;;;17.61;58.07;100424.88;2028115;29;20375;-66
2023/03/22 08:56:45;;;;;;;;;;;;;;;17.61;57.98;100430.34;2019736;29;19934;-68
2023/03/22 08:58:00;;;;;;;;;;;;;;;17.63;57.70;100433.44;2008929;29;19951;-65
2023/03/22 08:59:26;;;;;;;;;;;;;;;17.64;58.12;100440.47;1980082;29;20006;-64
2023/03/22 09:00:50;;;;;;;;;;;;;;;17.65;57.77;100438.50;2020730;29;19981;-65
2023/03/22 09:02:04;;;;;;;;;;;;;;;17.66;57.93;100431.88;2018060;29;20336;-63
2023/03/22 09:03:07;;;;;;;;;;;;;;;17.66;57.89;100432.63;2024244;29;19974;-65
2023/03/22 09:04:10;;;;;;;;;;;;;;;17.67;57.88;100438.88;2023786;29;19991;-64
2023/03/22 09:05:13;;;;;;;;;;;;;;;17.67;57.74;100438.88;2025671;29;19935;-64
2023/03/22 09:06:16;;;;;;;;;;;;;;;17.67;57.81;100423.28;2023635;29;19999;-64
2023/03/22 09:07:20;;;;;;;;;;;;;;;17.67;57.91;100433.41;2031396;29;20347;-64
2023/03/22 09:08:30;;;;;;;;;;;;;;;17.67;57.61;100427.97;2021808;29;20017;-64
2023/03/22 09:09:41;;;;;;;;;;;;;;;17.66;57.78;100421.72;2024228;29;19976;-64
2023/03/22 09:10:46;;;;;;;;;;;;;;;17.66;57.61;100434.59;2023818;29;19927;-65
2023/03/22 09:11:48;;;;;;;;;;;;;;;17.67;57.97;100425.22;2023716;29;20785;-64
2023/03/22 09:12:51;;;;;;;;;;;;;;;17.66;58.03;100426.41;2030245;29;20467;-65
2023/03/22 09:13:53;;;;;;;;;;;;;;;17.65;57.90;100424.84;2031547;29;20309;-64
2023/03/22 09:14:56;;;;;;;;;;;;;;;17.64;57.94;100429.53;2031261;29;19927;-64
2023/03/22 09:16:01;;;;;;;;;;;;;;;17.63;57.80;100425.25;2023735;29;20377;-65
2023/03/22 09:17:06;;;;;;;;;;;;;;;17.62;57.84;100431.88;2016572;29;19960;-64
2023/03/22 09:18:09;;;;;;;;;;;;;;;17.63;57.94;100432.69;2015246;29;20415;-66
2023/03/22 09:19:13;;;;;;;;;;;;;;;17.63;58.10;100441.63;2014818;29;19927;-65
2023/03/22 09:20:15;;;;;;;;;;;;;;;17.62;58.08;100431.88;2012287;29;20431;-65
2023/03/22 09:21:21;;;;;;;;;;;;;;;17.62;58.09;100425.63;2019038;29;19989;-66
2023/03/22 09:22:29;;;;;;;;;;;;;;;17.63;57.87;100433.44;2002340;29;20432;-67
2023/03/22 09:23:31;;;;;;;;;;;;;;;17.64;58.17;100445.13;2004434;29;19932;-66
2023/03/22 09:24:35;;;;;;;;;;;;;;;17.63;58.16;100430.69;2012917;29;21090;-67
2023/03/22 09:25:42;;;;;;;;;;;;;;;17.64;58.22;100445.94;2006172;29;19927;-66
2023/03/22 09:26:45;;;;;;;;;;;;;;;17.64;57.96;100434.22;2014589;29;19992;-66
2023/03/22 09:27:50;;;;;;;;;;;;;;;17.64;58.11;100426.03;2023048;29;19931;-66
2023/03/22 09:28:52;;;;;;;;;;;;;;;17.65;58.14;100435.75;2028390;29;19955;-66
2023/03/22 09:29:54;;;;;;;;;;;;;;;17.65;57.68;100427.56;2030171;29;20018;-67
2023/03/22 09:30:59;;;;;;;;;;;;;;;17.64;58.27;100434.22;2030002;29;19934;-67
2023/03/22 09:32:02;;;;;;;;;;;;;;;17.65;58.01;100446.69;2028036;29;19927;-66
2023/03/22 09:33:07;;;;;;;;;;;;;;;17.65;57.89;100430.31;2021984;29;19943;-66
2023/03/22 09:34:12;;;;;;;;;;;;;;;17.64;58.51;100439.69;2013084;29;20016;-66
2023/03/22 09:35:15;;;;;;;;;;;;;;;17.63;58.28;100438.13;2021476;29;20566;-66
2023/03/22 09:36:33;;;;;;;;;;;;;;;17.63;58.19;100440.88;2029251;29;19958;-70
2023/03/22 09:37:35;;;;;;;;;;;;;;;17.64;58.08;100439.69;2029416;29;19927;-69
2023/03/22 09:38:38;;;;;;;;;;;;;;;17.63;58.22;100427.97;2029695;29;19931;-71
2023/03/22 09:39:43;;;;;;;;;;;;;;;17.65;58.26;100427.56;2022015;29;20312;-70
2023/03/22 09:40:51;;;;;;;;;;;;;;;17.64;58.22;100431.50;2016753;29;20343;-72
2023/03/22 09:41:54;;;;;;;;;;;;;;;17.64;58.48;100426.81;2017189;29;19932;-75
2023/03/22 09:42:58;;;;;;;;;;;;;;;17.65;58.40;100430.31;2016257;29;20128;-71
2023/03/22 09:44:02;;;;;;;;;;;;;;;17.67;58.46;100430.69;2025321;29;20027;-71
2023/03/22 09:45:06;;;;;;;;;;;;;;;17.68;58.18;100445.88;2030266;29;19927;-73
2023/03/22 09:46:13;;;;;;;;;;;;;;;17.69;58.23;100437.31;2015612;29;19928;-73
2023/03/22 09:47:18;;;;;;;;;;;;;;;17.71;58.31;100434.19;2023565;29;19928;-69
2023/03/22 09:48:22;;;;;;;;;;;;;;;17.72;58.46;100436.53;2030596;29;19935;-70
2023/03/22 09:49:26;;;;;;;;;;;;;;;17.72;58.67;100433.00;2024801;29;19939;-71
2023/03/22 09:50:31;;;;;;;;;;;;;;;17.73;58.46;100432.63;2023435;29;19969;-75
2023/03/22 09:51:36;;;;;;;;;;;;;;;17.74;58.51;100447.06;2031884;29;19930;-71
2023/03/22 09:52:40;;;;;;;;;;;;;;;17.75;58.40;100429.47;2032316;29;19931;-71
2023/03/22 09:53:41;;;;;;;;;;;;;;;17.75;58.62;100440.41;2031447;29;20036;-78
2023/03/22 09:54:46;;;;;;;;;;;;;;;17.76;58.59;100431.03;2025106;29;19928;-69
2023/03/22 09:55:55;;;;;;;;;;;;;;;17.76;58.59;100425.56;2024950;29;19935;-69
2023/03/22 09:57:01;;;;;;;;;;;;;;;17.77;58.80;100432.59;2024301;29;19967;-74
2023/03/22 09:58:07;;;;;;;;;;;;;;;17.81;58.63;100438.81;2022960;29;19927;-76
2023/03/22 09:59:12;;;;;;;;;;;;;;;17.82;58.68;100434.91;2024266;29;20456;-70
2023/03/22 10:00:19;;;;;;;;;;;;;;;17.83;58.58;100444.66;2025431;29;19962;-72
2023/03/22 10:01:28;;;;;;;;;;;;;;;17.84;59.04;100435.28;2023846;29;20379;-69
2023/03/22 10:02:36;;;;;;;;;;;;;;;17.85;58.82;100440.34;2023202;29;19974;-66
2023/03/22 10:03:55;;;;;;;;;;;;;;;17.87;58.89;100437.19;2021233;29;19975;-72
2023/03/22 10:05:01;;;;;;;;;;;;;;;17.88;58.63;100436.03;2022175;29;19927;-59
2023/03/22 10:06:06;;;;;;;;;;;;;;;17.90;58.79;100431.72;2023020;29;19927;-56
2023/03/22 10:07:15;;;;;;;;;;;;;;;17.92;58.85;100429.38;2022514;29;19975;-58
2023/03/22 10:08:24;;;;;;;;;;;;;;;17.94;59.06;100437.19;2022183;29;19982;-55
2023/03/22 10:09:31;;;;;;;;;;;;;;;17.95;58.75;100429.78;2014162;29;19924;-58
2023/03/22 10:10:34;;;;;;;;;;;;;;;17.95;59.05;100433.25;2017902;29;19976;-58
2023/03/22 10:11:42;;;;;;;;;;;;;;;17.96;59.13;100425.84;2023338;29;19934;-59
2023/03/22 10:12:52;;;;;;;;;;;;;;;17.97;59.12;100435.59;2024234;29;19930;-59
2023/03/22 10:13:59;;;;;;;;;;;;;;;17.97;58.89;100422.72;2021317;29;19935;-58
2023/03/22 10:15:04;;;;;;;;;;;;;;;17.98;59.13;100431.69;2023972;29;19961;-58
2023/03/22 10:16:10;;;;;;;;;;;;;;;17.97;58.94;100421.94;2023046;29;20349;-57
2023/03/22 10:17:15;;;;;;;;;;;;;;;17.97;59.02;100424.66;2023879;29;19927;-56
2023/03/22 10:18:19;;;;;;;;;;;;;;;17.96;59.08;100429.38;2024625;29;20006;-55
2023/03/22 10:19:25;;;;;;;;;;;;;;;17.97;59.32;100430.13;2023231;29;19931;-58
2023/03/22 10:20:30;;;;;;;;;;;;;;;17.97;59.00;100424.66;2023278;29;19950;-59
2023/03/22 10:21:34;;;;;;;;;;;;;;;17.97;59.38;100424.66;2022954;29;19952;-58
2023/03/22 10:22:39;;;;;;;;;;;;;;;17.96;59.30;100423.91;2020904;29;19974;-58
2023/03/22 10:23:44;;;;;;;;;;;;;;;17.97;59.04;100430.13;2016895;29;19930;-65
2023/03/22 10:24:48;;;;;;;;;;;;;;;17.96;59.33;100429.38;2015777;29;19924;-60
2023/03/22 10:25:52;;;;;;;;;;;;;;;17.97;59.43;100422.72;2023482;29;20373;-57
2023/03/22 10:26:55;;;;;;;;;;;;;;;17.97;59.59;100419.97;2021043;29;19928;-56
2023/03/22 10:27:58;;;;;;;;;;;;;;;17.97;59.22;100430.91;2013783;29;20137;-58
2023/03/22 10:29:03;;;;;;;;;;;;;;;17.98;59.54;100426.22;2016398;29;19927;-58
2023/03/22 10:30:07;;;;;;;;;;;;;;;17.98;59.24;100431.69;2024111;29;20322;-58
2023/03/22 10:31:13;;;;;;;;;;;;;;;17.98;59.33;100437.16;2022631;29;19928;-59
2023/03/22 10:32:17;;;;;;;;;;;;;;;17.98;59.37;100434.44;2023057;29;19978;-58
2023/03/22 10:33:24;;;;;;;;;;;;;;;17.97;59.20;100425.44;2022222;29;20574;-59
2023/03/22 10:34:29;;;;;;;;;;;;;;;17.98;59.22;100437.16;2021933;29;19931;-60
2023/03/22 10:35:32;;;;;;;;;;;;;;;17.97;59.42;100425.44;2023484;29;20474;-62
2023/03/22 10:36:37;;;;;;;;;;;;;;;17.98;59.38;100426.22;2023123;29;19928;-62
2023/03/22 10:37:40;;;;;;;;;;;;;;;17.98;59.26;100431.69;2021194;29;20436;-61
2023/03/22 10:38:45;;;;;;;;;;;;;;;17.97;59.09;100436.38;2024240;29;19927;-61
2023/03/22 10:39:50;;;;;;;;;;;;;;;17.98;59.00;100437.16;2023908;29;19928;-61
2023/03/22 10:40:55;;;;;;;;;;;;;;;17.98;59.07;100437.94;2023808;29;19974;-61
2023/03/22 10:42:01;;;;;;;;;;;;;;;17.97;59.32;100435.59;2023202;29;20464;-54
2023/03/22 10:43:06;;;;;;;;;;;;;;;17.96;59.32;100432.09;2021484;29;19983;-57
2023/03/22 10:44:13;;;;;;;;;;;;;;;17.97;59.39;100435.59;2021554;29;20356;-57
2023/03/22 10:45:15;;;;;;;;;;;;;;;17.96;59.30;100432.09;2023517;29;19931;-56
2023/03/22 10:46:19;;;;;;;;;;;;;;;17.97;59.62;100438.31;2024284;29;19970;-55
2023/03/22 10:47:26;;;;;;;;;;;;;;;17.97;59.55;100441.06;2014999;29;20305;-58
2023/03/22 10:48:31;;;;;;;;;;;;;;;17.97;59.68;100424.66;2016083;29;19955;-64
2023/03/22 10:49:36;;;;;;;;;;;;;;;17.97;59.47;100422.72;2023499;29;19924;-61
2023/03/22 10:50:40;;;;;;;;;;;;;;;17.97;59.70;100430.13;2022888;29;20385;-60
2023/03/22 10:51:45;;;;;;;;;;;;;;;17.97;59.53;100422.72;2022790;29;20435;-60
2023/03/22 10:52:51;;;;;;;;;;;;;;;17.97;59.61;100425.44;2023075;29;19981;-60
2023/03/22 10:53:56;;;;;;;;;;;;;;;17.97;59.50;100424.66;2023804;29;19966;-58
2023/03/22 10:54:59;;;;;;;;;;;;;;;17.96;59.77;100429.38;2023571;29;20009;-58
2023/03/22 10:56:11;;;;;;;;;;;;;;;17.97;60.03;100425.44;2023662;29;20440;-58
2023/03/22 10:57:14;;;;;;;;;;;;;;;17.97;59.84;100425.44;2021652;29;19931;-58
2023/03/22 10:58:18;;;;;;;;;;;;;;;17.97;59.95;100439.09;2014553;29;19923;-57
2023/03/22 10:59:39;;;;;;;;;;;;;;;17.98;60.22;100437.16;2008422;29;19945;-57
2023/03/22 11:00:45;;;;;;;;;;;;;;;17.97;60.23;100433.66;2018567;29;19931;-57
2023/03/22 11:01:49;;;;;;;;;;;;;;;17.99;60.30;100433.25;2023727;29;19927;-59
2023/03/22 11:02:54;;;;;;;;;;;;;;;17.98;60.17;100454.34;2022159;29;20365;-59
2023/03/22 11:03:58;;;;;;;;;;;;;;;17.99;60.19;100438.72;2021355;29;20419;-57
2023/03/22 11:05:02;;;;;;;;;;;;;;;17.98;60.20;100437.94;2022805;29;21849;-57
2023/03/22 11:06:06;;;;;;;;;;;;;;;17.98;60.16;100432.50;2023986;29;19935;-58
2023/03/22 11:07:15;;;;;;;;;;;;;;;17.98;60.27;100437.94;2023708;29;19934;-57
2023/03/22 11:08:18;;;;;;;;;;;;;;;17.99;60.11;100439.50;2013891;29;19927;-57
2023/03/22 11:09:21;;;;;;;;;;;;;;;17.98;60.27;100432.50;2015564;29;19939;-57
2023/03/22 11:10:27;;;;;;;;;;;;;;;17.99;60.29;100439.50;2024076;29;20365;-57
2023/03/22 11:11:31;;;;;;;;;;;;;;;17.99;60.28;100427.78;2020762;29;19954;-56
2023/03/22 11:12:35;;;;;;;;;;;;;;;18.00;60.23;100435.56;2024211;29;19930;-57
2023/03/22 11:13:39;;;;;;;;;;;;;;;18.00;60.40;100413.72;2023534;29;19927;-58
2023/03/22 11:14:42;;;;;;;;;;;;;;;18.01;60.38;100428.16;2023463;29;20373;-60
2023/03/22 11:15:51;;;;;;;;;;;;;;;17.99;60.58;100423.09;2022352;29;19962;-59
2023/03/22 11:16:56;;;;;;;;;;;;;;;18.00;60.15;100427.38;2024181;29;21725;-59
2023/03/22 11:17:59;;;;;;;;;;;;;;;18.01;60.22;100425.44;2023485;29;19927;-59
2023/03/22 11:19:02;;;;;;;;;;;;;;;18.01;60.24;100428.16;2024311;29;19923;-60
2023/03/22 11:20:05;;;;;;;;;;;;;;;18.01;60.00;100439.09;2023402;29;20407;-59
2023/03/22 11:21:10;;;;;;;;;;;;;;;18.01;60.13;100419.97;2020424;29;19927;-59
2023/03/22 11:22:18;;;;;;;;;;;;;;;18.00;60.17;100424.66;2022591;29;20427;-60
2023/03/22 11:23:21;;;;;;;;;;;;;;;17.98;59.97;100404.38;2024295;29;19975;-59
2023/03/22 11:24:25;;;;;;;;;;;;;;;17.98;60.08;100407.91;2024373;29;19935;-59
2023/03/22 11:25:28;;;;;;;;;;;;;;;17.97;60.09;100414.53;2022704;29;19975;-59
2023/03/22 11:26:32;;;;;;;;;;;;;;;17.97;60.03;100414.53;2023210;29;19979;-58
2023/03/22 11:27:48;;;;;;;;;;;;;;;17.97;59.87;100425.44;2022541;29;19932;-56
2023/03/22 11:28:51;;;;;;;;;;;;;;;17.97;59.81;100419.97;2021600;29;19982;-57
2023/03/22 11:29:56;;;;;;;;;;;;;;;17.97;59.94;100419.19;2019662;29;19970;-56
2023/03/22 11:31:01;;;;;;;;;;;;;;;17.97;59.83;100430.13;2015369;29;19976;-57
2023/03/22 11:32:04;;;;;;;;;;;;;;;17.96;59.94;100429.38;2023306;29;19935;-57
2023/03/22 11:33:15;;;;;;;;;;;;;;;17.95;59.86;100427.03;2022871;29;19931;-57
2023/03/22 11:34:20;;;;;;;;;;;;;;;17.96;60.00;100420.38;2023741;29;20010;-57
2023/03/22 11:35:24;;;;;;;;;;;;;;;17.96;59.81;100423.13;2021371;29;19931;-57
2023/03/22 11:36:27;;;;;;;;;;;;;;;17.95;59.63;100437.97;2022049;29;19935;-56
2023/03/22 11:37:32;;;;;;;;;;;;;;;17.95;59.94;100427.03;2023403;29;19927;-57
2023/03/22 11:38:36;;;;;;;;;;;;;;;17.96;59.87;100418.44;2023732;29;19975;-57
2023/03/22 11:39:45;;;;;;;;;;;;;;;17.97;59.77;100430.13;2023573;29;19934;-56
2023/03/22 11:40:51;;;;;;;;;;;;;;;17.99;59.93;100431.28;2022369;29;19975;-57
2023/03/22 11:41:56;;;;;;;;;;;;;;;18.00;59.59;100441.03;2022626;29;19984;-55
2023/03/22 11:43:09;;;;;;;;;;;;;;;18.02;59.88;100441.41;2023325;29;19928;-56
2023/03/22 11:44:13;;;;;;;;;;;;;;;18.04;59.81;100441.81;2024137;29;19927;-57
2023/03/22 11:45:18;;;;;;;;;;;;;;;18.07;59.68;100440.22;2022693;29;19931;-56
2023/03/22 11:46:22;;;;;;;;;;;;;;;18.07;59.66;100427.34;2022121;29;19938;-55
2023/03/22 11:47:24;;;;;;;;;;;;;;;18.09;59.78;100438.66;2023691;29;20673;-57
2023/03/22 11:48:28;;;;;;;;;;;;;;;18.11;59.69;100439.00;2023100;29;19927;-56
2023/03/22 11:49:37;;;;;;;;;;;;;;;18.13;59.74;100439.41;2023963;29;19930;-57
2023/03/22 11:50:42;;;;;;;;;;;;;;;18.14;59.91;100449.13;2024302;29;20349;-57
2023/03/22 11:51:44;;;;;;;;;;;;;;;18.16;59.87;100435.88;2021844;29;19935;-61
2023/03/22 11:52:47;;;;;;;;;;;;;;;18.18;59.81;100447.19;2022003;29;20440;-59
2023/03/22 11:53:55;;;;;;;;;;;;;;;18.20;59.95;100465.91;2023576;29;19931;-59
2023/03/22 11:54:58;;;;;;;;;;;;;;;18.13;60.03;100444.88;2022412;29;19931;-59
2023/03/22 11:56:02;;;;;;;;;;;;;;;18.21;60.04;100446.38;2021907;29;19982;-59
2023/03/22 11:57:09;;;;;;;;;;;;;;;18.22;60.16;100442.44;2023841;29;20717;-60
2023/03/22 11:58:22;;;;;;;;;;;;;;;18.24;60.07;100447.50;2022268;29;20041;-60
2023/03/22 11:59:26;;;;;;;;;;;;;;;18.25;60.14;100463.50;2023050;29;19928;-59
2023/03/22 12:00:30;;;;;;;;;;;;;;;18.26;60.18;100453.38;2022120;29;19931;-61
2023/03/22 12:01:35;;;;;;;;;;;;;;;18.27;60.24;100457.63;2023130;29;19931;-60
2023/03/22 12:02:41;;;;;;;;;;;;;;;18.27;60.24;100465.84;2016067;29;19970;-57
2023/03/22 12:03:45;;;;;;;;;;;;;;;18.28;60.24;100481.88;2013574;29;19966;-54
2023/03/22 12:04:50;;;;;;;;;;;;;;;18.30;60.21;100476.75;2022475;29;19994;-56
2023/03/22 12:05:52;;;;;;;;;;;;;;;18.30;60.02;100484.94;2022797;29;19934;-57
2023/03/22 12:06:56;;;;;;;;;;;;;;;18.31;60.33;100483.78;2022496;29;19978;-56
2023/03/22 12:08:01;;;;;;;;;;;;;;;18.31;60.38;100486.53;2023774;29;19931;-56
2023/03/22 12:09:05;;;;;;;;;;;;;;;18.31;60.36;100472.84;2022501;29;19927;-55
2023/03/22 12:10:13;;;;;;;;;;;;;;;18.32;60.34;100474.41;2022777;29;20042;-57
2023/03/22 12:11:17;;;;;;;;;;;;;;;18.31;60.33;100456.47;2023099;29;19987;-56
2023/03/22 12:12:22;;;;;;;;;;;;;;;18.33;60.23;100459.56;2023231;29;19974;-58
2023/03/22 12:13:28;;;;;;;;;;;;;;;18.34;60.41;100461.13;2023660;29;20018;-57
2023/03/22 12:14:33;;;;;;;;;;;;;;;18.34;60.40;100455.66;2024160;29;19998;-57
2023/03/22 12:15:38;;;;;;;;;;;;;;;18.34;60.33;100457.59;2023792;29;19931;-56
2023/03/22 12:16:44;;;;;;;;;;;;;;;18.34;60.43;100460.34;2025619;29;20393;-56
2023/03/22 12:17:50;;;;;;;;;;;;;;;18.34;60.56;100450.19;2025148;29;19923;-56
2023/03/22 12:18:59;;;;;;;;;;;;;;;18.34;60.44;100469.31;2025099;29;19931;-57
2023/03/22 12:20:10;;;;;;;;;;;;;;;18.34;60.55;100455.66;2024682;29;19924;-57
2023/03/22 12:21:12;;;;;;;;;;;;;;;18.35;60.63;100459.16;2023761;29;20669;-55
2023/03/22 12:22:17;;;;;;;;;;;;;;;18.35;60.46;100454.47;2024464;29;20034;-57
2023/03/22 12:23:21;;;;;;;;;;;;;;;18.35;60.55;100465.41;2023633;29;20002;-56
2023/03/22 12:24:25;;;;;;;;;;;;;;;18.37;60.78;100465.00;2025283;29;19927;-56
2023/03/22 12:25:31;;;;;;;;;;;;;;;18.37;60.85;100465.00;2024831;29;19927;-58
2023/03/22 12:26:34;;;;;;;;;;;;;;;18.39;60.80;100471.66;2025432;29;19966;-57
2023/03/22 12:27:38;;;;;;;;;;;;;;;18.41;60.92;100460.31;2025721;29;19951;-57
2023/03/22 12:28:43;;;;;;;;;;;;;;;18.42;60.94;100457.19;2023937;29;19989;-56
2023/03/22 12:29:48;;;;;;;;;;;;;;;18.44;61.17;100460.28;2024419;29;19927;-57
2023/03/22 12:30:52;;;;;;;;;;;;;;;18.47;60.95;100467.66;2022441;29;20408;-58
2023/03/22 12:32:00;;;;;;;;;;;;;;;18.49;60.88;100470.78;2022871;29;19928;-57
2023/03/22 12:33:05;;;;;;;;;;;;;;;18.51;60.72;100460.25;2024482;29;20432;-57
2023/03/22 12:34:11;;;;;;;;;;;;;;;18.53;60.94;100468.03;2025580;29;20014;-57
2023/03/22 12:35:15;;;;;;;;;;;;;;;18.55;60.85;100455.50;2023749;29;19958;-57
2023/03/22 12:36:21;;;;;;;;;;;;;;;18.59;60.77;100450.00;2023850;29;19930;-57
2023/03/22 12:37:24;;;;;;;;;;;;;;;18.59;60.86;100452.75;2022037;29;20013;-57
2023/03/22 12:38:32;;;;;;;;;;;;;;;18.60;60.81;100455.06;2023405;29;19935;-56
2023/03/22 12:39:38;;;;;;;;;;;;;;;18.62;60.80;100451.94;2024486;29;19946;-57
2023/03/22 12:40:41;;;;;;;;;;;;;;;18.63;60.75;100448.78;2016459;29;20424;-57
2023/03/22 12:41:46;;;;;;;;;;;;;;;18.64;60.64;100458.56;2016811;29;19927;-57
2023/03/22 12:42:51;;;;;;;;;;;;;;;18.65;60.63;100451.91;2023890;29;19971;-57
2023/03/22 12:44:01;;;;;;;;;;;;;;;18.66;60.65;100450.72;2024522;29;19966;-57
2023/03/22 12:45:05;;;;;;;;;;;;;;;18.66;60.56;100461.66;2025398;29;19928;-56
2023/03/22 12:46:14;;;;;;;;;;;;;;;18.68;60.76;100444.88;2024121;29;19928;-57
2023/03/22 12:47:20;;;;;;;;;;;;;;;18.69;60.59;100455.41;2025254;29;19927;-56
2023/03/22 12:48:30;;;;;;;;;;;;;;;18.70;60.68;100456.16;2024566;29;19928;-60
2023/03/22 12:49:36;;;;;;;;;;;;;;;18.71;60.66;100458.50;2022182;29;19927;-57
2023/03/22 12:50:43;;;;;;;;;;;;;;;18.72;60.71;100460.06;2024905;29;20023;-57
2023/03/22 12:51:45;;;;;;;;;;;;;;;18.74;60.67;100451.47;2024357;29;19931;-58
2023/03/22 12:52:49;;;;;;;;;;;;;;;18.75;60.66;100455.72;2024928;29;19928;-56
2023/03/22 12:53:53;;;;;;;;;;;;;;;18.76;60.76;100455.31;2023110;29;19931;-56
2023/03/22 12:54:58;;;;;;;;;;;;;;;18.79;60.70;100451.03;2025096;29;19924;-57
2023/03/22 12:56:00;;;;;;;;;;;;;;;18.80;60.69;100455.31;2024677;29;19983;-60
2023/03/22 12:57:04;;;;;;;;;;;;;;;18.81;60.58;100456.84;2024358;29;19927;-57
2023/03/22 12:58:09;;;;;;;;;;;;;;;18.83;60.67;100454.50;2024123;29;19927;-57
2023/03/22 12:59:17;;;;;;;;;;;;;;;18.84;60.65;100459.56;2024747;29;19924;-57
2023/03/22 13:00:19;;;;;;;;;;;;;;;18.84;60.68;100453.28;2024731;29;20381;-57
2023/03/22 13:01:27;;;;;;;;;;;;;;;18.86;60.53;100456.41;2024506;29;19933;-57
2023/03/22 13:02:30;;;;;;;;;;;;;;;18.85;60.40;100463.84;2025134;29;19934;-57
2023/03/22 13:03:38;;;;;;;;;;;;;;;18.85;60.48;100458.38;2024609;29;19927;-58
2023/03/22 13:04:49;;;;;;;;;;;;;;;18.86;60.40;100462.66;2023093;29;19934;-58
2023/03/22 13:06:00;;;;;;;;;;;;;;;18.86;60.59;100454.47;2025372;29;19991;-57
2023/03/22 13:07:15;;;;;;;;;;;;;;;18.86;60.53;100456.41;2024530;29;19974;-57
2023/03/22 13:08:20;;;;;;;;;;;;;;;18.86;60.59;100454.47;2023767;29;19934;-57
2023/03/22 13:09:34;;;;;;;;;;;;;;;18.86;60.50;100462.66;2025159;29;19975;-57
2023/03/22 13:10:40;;;;;;;;;;;;;;;18.86;60.32;100459.94;2022901;29;19923;-57
2023/03/22 13:11:43;;;;;;;;;;;;;;;18.87;60.54;100464.22;2024179;29;19931;-57
2023/03/22 13:13:08;;;;;;;;;;;;;;;18.88;60.71;100462.25;2024620;29;19923;-57
2023/03/22 13:14:43;;;;;;;;;;;;;;;18.88;60.71;100452.09;2015314;29;20018;-57
2023/03/22 13:16:01;;;;;;;;;;;;;;;18.90;60.76;100449.72;1993968;29;19924;-56
2023/03/22 13:17:05;;;;;;;;;;;;;;;18.92;60.81;100455.56;1998462;29;19944;-57
2023/03/22 13:18:28;;;;;;;;;;;;;;;18.95;60.75;100457.50;1998620;29;19940;-57
2023/03/22 13:19:34;;;;;;;;;;;;;;;18.95;60.67;100462.97;2002108;29;19932;-57
2023/03/22 13:20:39;;;;;;;;;;;;;;;18.96;60.65;100456.31;2003232;29;19931;-55
2023/03/22 13:21:42;;;;;;;;;;;;;;;18.98;60.60;100447.72;2008580;29;20443;-56
2023/03/22 13:22:58;;;;;;;;;;;;;;;18.98;60.50;100448.47;2014654;29;19928;-56
2023/03/22 13:24:18;;;;;;;;;;;;;;;18.97;60.14;100452.41;2014956;29;19928;-55
2023/03/22 13:25:33;;;;;;;;;;;;;;;18.97;59.88;100455.13;2024550;29;20074;-54
2023/03/22 13:26:38;;;;;;;;;;;;;;;18.96;59.90;100450.81;2024006;29;19923;-56
2023/03/22 13:27:48;;;;;;;;;;;;;;;18.96;59.77;100463.75;2024245;29;19927;-55
2023/03/22 13:28:55;;;;;;;;;;;;;;;18.94;59.60;100458.69;2024742;29;20030;-55
2023/03/22 13:29:58;;;;;;;;;;;;;;;18.93;59.55;100459.84;2024410;29;19983;-53
2023/03/22 13:31:03;;;;;;;;;;;;;;;18.94;59.44;100466.09;2024703;29;20387;-55
2023/03/22 13:32:06;;;;;;;;;;;;;;;18.91;59.03;100464.97;2022682;29;19927;-55
2023/03/22 13:33:13;;;;;;;;;;;;;;;18.92;59.02;100466.50;2024043;29;20609;-55
2023/03/22 13:34:18;;;;;;;;;;;;;;;18.90;59.10;100463.41;2023623;29;19942;-56
2023/03/22 13:35:22;;;;;;;;;;;;;;;18.90;59.19;100474.34;2024453;29;19934;-56
2023/03/22 13:36:28;;;;;;;;;;;;;;;18.90;59.22;100468.13;2025169;29;19927;-56
2023/03/22 13:37:33;;;;;;;;;;;;;;;18.90;59.16;100468.88;2016018;29;19931;-56
2023/03/22 13:38:40;;;;;;;;;;;;;;;18.91;59.14;100466.91;2015137;29;19935;-56
2023/03/22 13:39:50;;;;;;;;;;;;;;;18.90;59.11;100471.59;2022919;29;19928;-57
2023/03/22 13:40:58;;;;;;;;;;;;;;;18.89;59.09;100467.31;2024039;29;19983;-54
2023/03/22 13:42:03;;;;;;;;;;;;;;;18.90;58.90;100471.59;2021974;29;19935;-56
2023/03/22 13:43:09;;;;;;;;;;;;;;;18.91;58.87;100473.19;2025575;29;19932;-57
2023/03/22 13:44:20;;;;;;;;;;;;;;;18.91;58.85;100462.25;2024912;29;19979;-56
2023/03/22 13:45:30;;;;;;;;;;;;;;;18.90;58.68;100468.88;2023161;29;20014;-56
2023/03/22 13:46:45;;;;;;;;;;;;;;;18.90;58.49;100477.06;2022853;29;19931;-54
2023/03/22 13:48:02;;;;;;;;;;;;;;;18.90;58.51;100476.31;2022025;29;19931;-57
2023/03/22 13:49:32;;;;;;;;;;;;;;;18.88;58.49;100465.78;2023680;29;20010;-57
2023/03/22 13:50:35;;;;;;;;;;;;;;;18.87;58.70;100468.91;2023009;29;19927;-55
2023/03/22 13:51:37;;;;;;;;;;;;;;;18.87;58.32;100466.94;2020592;29;19991;-57
2023/03/22 13:52:42;;;;;;;;;;;;;;;18.86;58.51;100479.09;2015560;29;19927;-56
2023/03/22 13:53:51;;;;;;;;;;;;;;;18.86;58.33;100470.88;2016612;29;19928;-55
2023/03/22 13:54:56;;;;;;;;;;;;;;;18.85;58.24;100466.56;2016327;29;20782;-56
2023/03/22 13:55:59;;;;;;;;;;;;;;;18.85;58.56;100476.75;2014304;29;19932;-54
2023/03/22 13:57:02;;;;;;;;;;;;;;;18.85;58.64;100463.06;2015501;29;19924;-56
2023/03/22 13:58:07;;;;;;;;;;;;;;;18.84;58.43;100465.03;2015291;29;19928;-54
2023/03/22 13:59:11;;;;;;;;;;;;;;;18.84;58.13;100465.03;2014837;29;19932;-57
2023/03/22 14:00:17;;;;;;;;;;;;;;;18.84;58.24;100467.75;2016971;29;20026;-56
2023/03/22 14:01:26;;;;;;;;;;;;;;;18.84;58.15;100470.50;2015314;29;19928;-58
2023/03/22 14:02:34;;;;;;;;;;;;;;;18.81;58.32;100460.38;2015781;29;20378;-55
2023/03/22 14:03:40;;;;;;;;;;;;;;;18.83;58.28;100446.28;2013885;29;19924;-55
2023/03/22 14:04:44;;;;;;;;;;;;;;;18.83;58.27;100460.75;2014243;29;19932;-56
2023/03/22 14:05:48;;;;;;;;;;;;;;;18.82;58.27;100461.91;2014018;29;20468;-56
2023/03/22 14:06:52;;;;;;;;;;;;;;;18.83;58.01;100465.44;2015593;29;20373;-55
2023/03/22 14:07:55;;;;;;;;;;;;;;;18.82;57.74;100452.94;2016161;29;19955;-55
2023/03/22 14:09:01;;;;;;;;;;;;;;;18.81;57.86;100457.63;2015617;29;19928;-56
2023/03/22 14:10:06;;;;;;;;;;;;;;;18.80;58.01;100452.56;2014275;29;19983;-54
2023/03/22 14:11:27;;;;;;;;;;;;;;;18.79;57.73;100465.47;2016259;29;19931;-56
2023/03/22 14:12:31;;;;;;;;;;;;;;;18.79;58.07;100453.75;2015550;29;19935;-56
2023/03/22 14:13:36;;;;;;;;;;;;;;;18.79;58.10;100460.00;2016134;29;19927;-56
2023/03/22 14:14:40;;;;;;;;;;;;;;;18.79;58.11;100470.94;2016877;29;19928;-56